Time;durP1;ratioP1;P1;durP2;ratioP2;P2;SDS_P1;SDS_P2;PMS_P1;PMS_P2;Temp;Humidity;BMP_temperature;BMP_pressure;BME280_temperature;BME280_humidity;BME280_pressure;Samples;Min_cycle;Max_cycle;Signal;HPM_P1;HPM_P2
2022/04/04 00:01:40;;;;;;;11.65;5.50;;;6.40;99.90;;;;;;5023272;28;20481;-69
2022/04/04 00:04:06;;;;;;;10.57;6.20;;;6.40;99.90;;;;;;5016721;28;20535;-69
2022/04/04 00:06:33;;;;;;;11.40;6.30;;;6.30;99.90;;;;;;5020858;28;20041;-70
2022/04/04 00:08:59;;;;;;;12.15;6.88;;;6.20;99.90;;;;;;5021109;28;20041;-69
2022/04/04 00:11:25;;;;;;;13.10;6.80;;;6.10;99.90;;;;;;5022195;28;20042;-69
2022/04/04 00:13:51;;;;;;;13.32;6.57;;;6.10;99.90;;;;;;5033719;28;20127;-69
2022/04/04 00:16:16;;;;;;;9.35;5.90;;;6.10;99.90;;;;;;5018521;28;20037;-69
2022/04/04 00:18:42;;;;;;;11.50;5.75;;;6.10;99.90;;;;;;5018952;28;20068;-69
2022/04/04 00:21:09;;;;;;;9.50;5.35;;;6.00;99.90;;;;;;5020864;28;20042;-69
2022/04/04 00:23:35;;;;;;;8.43;5.43;;;6.00;99.90;;;;;;5022540;28;20041;-69
2022/04/04 00:26:05;;;;;;;8.50;4.85;;;6.00;99.90;;;;;;5018105;28;20116;-69
2022/04/04 00:28:31;;;;;;;11.07;4.97;;;6.00;99.90;;;;;;5021880;28;20043;-69
2022/04/04 00:30:57;;;;;;;9.07;5.00;;;5.90;99.90;;;;;;5022189;28;20117;-70
2022/04/04 00:33:23;;;;;;;13.68;5.90;;;5.90;99.90;;;;;;5004107;28;20390;-69
2022/04/04 00:35:50;;;;;;;9.05;4.72;;;5.90;99.90;;;;;;5000809;28;20090;-69
2022/04/04 00:38:18;;;;;;;9.38;4.80;;;5.80;99.90;;;;;;5019831;28;20041;-69
2022/04/04 00:40:44;;;;;;;8.50;4.55;;;5.70;99.90;;;;;;5035376;28;20065;-69
2022/04/04 00:43:10;;;;;;;12.48;4.90;;;5.70;99.90;;;;;;5018599;28;20500;-69
2022/04/04 00:45:36;;;;;;;7.07;4.32;;;5.80;99.90;;;;;;5019879;28;20048;-69
2022/04/04 00:48:02;;;;;;;9.55;4.35;;;5.90;99.90;;;;;;5038873;28;20045;-70
2022/04/04 00:50:28;;;;;;;9.07;4.70;;;5.90;99.90;;;;;;5017757;28;20029;-69
2022/04/04 00:52:54;;;;;;;7.57;4.72;;;5.80;99.90;;;;;;5035684;28;20656;-69
2022/04/04 00:55:21;;;;;;;8.32;4.22;;;5.80;99.90;;;;;;5016753;28;20103;-69
2022/04/04 00:57:48;;;;;;;7.90;4.57;;;5.70;99.90;;;;;;5017788;28;20349;-69
2022/04/04 01:00:15;;;;;;;7.85;4.20;;;5.70;99.90;;;;;;5017328;28;20478;-69
2022/04/04 01:02:41;;;;;;;7.72;4.28;;;5.70;99.90;;;;;;4998864;28;20038;-69
2022/04/04 01:05:09;;;;;;;11.52;4.55;;;5.60;99.90;;;;;;5012998;28;20092;-71
2022/04/04 01:07:40;;;;;;;8.10;4.35;;;5.50;99.90;;;;;;5018751;28;20058;-69
2022/04/04 01:10:08;;;;;;;9.13;4.53;;;5.50;99.90;;;;;;5014705;28;20057;-69
2022/04/04 01:12:34;;;;;;;8.35;4.35;;;5.50;99.90;;;;;;5019847;28;20106;-69
2022/04/04 01:15:00;;;;;;;8.00;4.35;;;5.50;99.90;;;;;;5020658;28;20065;-70
2022/04/04 01:17:27;;;;;;;7.60;4.70;;;5.50;99.90;;;;;;4998831;28;20049;-70
2022/04/04 01:19:53;;;;;;;12.60;5.05;;;5.50;99.90;;;;;;5036477;28;20034;-69
2022/04/04 01:22:19;;;;;;;8.70;4.82;;;5.40;99.90;;;;;;5035871;28;20029;-69
2022/04/04 01:24:45;;;;;;;9.98;4.72;;;5.50;99.90;;;;;;5024736;28;20691;-69
2022/04/04 01:27:13;;;;;;;9.30;4.85;;;5.50;99.90;;;;;;5031694;28;20038;-68
2022/04/04 01:29:40;;;;;;;8.88;4.90;;;5.50;99.90;;;;;;5032439;28;20095;-69
2022/04/04 01:32:08;;;;;;;8.63;4.82;;;5.50;99.90;;;;;;5018932;28;20704;-68
2022/04/04 01:34:34;;;;;;;7.95;5.03;;;5.40;99.90;;;;;;5031112;28;20477;-69
2022/04/04 01:37:01;;;;;;;7.88;4.90;;;5.40;99.90;;;;;;5003907;28;20117;-69
2022/04/04 01:39:27;;;;;;;9.73;5.00;;;5.50;99.90;;;;;;5017984;28;20053;-69
2022/04/04 01:41:53;;;;;;;7.10;5.18;;;5.50;99.90;;;;;;5035347;28;20563;-69
2022/04/04 01:44:20;;;;;;;11.40;5.15;;;5.40;99.90;;;;;;5020199;28;20385;-69
2022/04/04 01:46:46;;;;;;;8.52;4.50;;;5.40;99.90;;;;;;5018050;28;20033;-68
2022/04/04 01:49:12;;;;;;;8.55;5.03;;;5.40;99.90;;;;;;4972715;28;20042;-69
2022/04/04 01:51:39;;;;;;;7.35;4.95;;;5.40;99.90;;;;;;5002595;28;20042;-69
2022/04/04 01:54:06;;;;;;;8.65;5.32;;;5.30;99.90;;;;;;5019182;28;20041;-69
2022/04/04 01:56:33;;;;;;;9.88;5.57;;;5.30;99.90;;;;;;5004480;28;20358;-69
2022/04/04 01:58:59;;;;;;;8.25;5.85;;;5.30;99.90;;;;;;5034493;28;20131;-69
2022/04/04 02:01:27;;;;;;;10.18;5.40;;;5.30;99.90;;;;;;5020140;28;20167;-69
2022/04/04 02:03:56;;;;;;;10.98;6.07;;;5.20;99.90;;;;;;4996847;28;20065;-70
2022/04/04 02:06:22;;;;;;;11.82;6.10;;;5.30;99.90;;;;;;5019568;28;20045;-69
2022/04/04 02:08:50;;;;;;;10.27;5.55;;;5.20;99.90;;;;;;5035185;28;20128;-69
2022/04/04 02:11:18;;;;;;;8.48;5.80;;;5.20;99.90;;;;;;5030991;28;20477;-69
2022/04/04 02:13:44;;;;;;;9.75;5.43;;;5.20;99.90;;;;;;4999607;28;20038;-69
2022/04/04 02:16:11;;;;;;;10.15;5.63;;;5.10;99.90;;;;;;5015441;28;20045;-69
2022/04/04 02:18:38;;;;;;;11.75;6.13;;;5.00;99.90;;;;;;5002070;28;20060;-69
2022/04/04 02:21:07;;;;;;;10.60;5.35;;;5.00;99.90;;;;;;5018305;28;20072;-69
2022/04/04 02:23:34;;;;;;;9.90;5.53;;;5.00;99.90;;;;;;5021331;28;20124;-68
2022/04/04 02:26:00;;;;;;;8.73;5.93;;;5.00;99.90;;;;;;5019527;28;20034;-69
2022/04/04 02:28:27;;;;;;;11.30;6.38;;;5.00;99.90;;;;;;5018198;28;20452;-69
2022/04/04 02:30:55;;;;;;;12.57;6.80;;;5.00;99.90;;;;;;5007368;28;20038;-70
2022/04/04 02:33:22;;;;;;;11.90;6.47;;;5.00;99.90;;;;;;5031813;28;20392;-68
2022/04/04 02:35:50;;;;;;;15.18;7.10;;;4.90;99.90;;;;;;5023031;28;20319;-68
2022/04/04 02:38:18;;;;;;;11.65;7.18;;;4.90;99.90;;;;;;5019614;28;20136;-69
2022/04/04 02:40:44;;;;;;;10.73;6.70;;;4.90;99.90;;;;;;5008361;28;20060;-69
2022/04/04 02:43:11;;;;;;;9.18;6.40;;;4.90;99.90;;;;;;5035622;28;20042;-69
2022/04/04 02:45:37;;;;;;;13.15;6.55;;;4.90;99.90;;;;;;5043086;28;20040;-69
2022/04/04 02:48:04;;;;;;;10.60;6.15;;;4.90;99.90;;;;;;5021831;28;20048;-68
2022/04/04 02:50:30;;;;;;;10.43;6.18;;;4.90;99.90;;;;;;5020140;28;20402;-69
2022/04/04 02:52:56;;;;;;;11.75;6.50;;;4.90;99.90;;;;;;5001043;28;20428;-68
2022/04/04 02:58:07;;;;;;;11.93;5.45;;;5.00;99.90;;;;;;5024128;28;20048;-69
2022/04/04 03:00:34;;;;;;;9.18;5.68;;;4.90;99.90;;;;;;5023907;28;20056;-70
2022/04/04 03:03:01;;;;;;;10.10;5.88;;;4.90;99.90;;;;;;5022484;28;20038;-69
2022/04/04 03:05:27;;;;;;;8.80;5.63;;;4.90;99.90;;;;;;5022169;28;20046;-69
2022/04/04 03:07:53;;;;;;;11.35;5.63;;;4.90;99.90;;;;;;5032778;28;20536;-69
2022/04/04 03:10:20;;;;;;;10.07;5.45;;;4.80;99.90;;;;;;5039053;28;20037;-70
2022/04/04 03:12:48;;;;;;;9.82;5.60;;;4.90;99.90;;;;;;5021662;28;20095;-69
2022/04/04 03:15:17;;;;;;;8.02;5.65;;;4.80;99.90;;;;;;5041163;28;20061;-70
2022/04/04 03:17:44;;;;;;;11.40;5.60;;;4.80;99.90;;;;;;4999549;28;20042;-69
2022/04/04 03:20:12;;;;;;;9.77;5.57;;;4.80;99.90;;;;;;5021131;28;20041;-69
2022/04/04 03:22:49;;;;;;;9.88;5.90;;;4.80;99.90;;;;;;5040561;28;20124;-69
2022/04/04 03:25:17;;;;;;;9.30;5.60;;;4.70;99.90;;;;;;5003338;28;20038;-69
2022/04/04 03:27:45;;;;;;;13.65;6.28;;;4.70;99.90;;;;;;5017717;28;20136;-68
2022/04/04 03:30:18;;;;;;;9.73;5.53;;;4.70;99.90;;;;;;5015874;28;20034;-68
2022/04/04 03:32:45;;;;;;;11.15;5.72;;;4.70;99.90;;;;;;5002706;28;20034;-69
2022/04/04 03:35:14;;;;;;;10.00;5.45;;;4.80;99.90;;;;;;5021789;28;20490;-69
2022/04/04 03:37:43;;;;;;;15.60;6.55;;;4.70;99.90;;;;;;5002369;28;20049;-69
2022/04/04 03:40:12;;;;;;;12.38;5.53;;;4.70;99.90;;;;;;5022401;28;20049;-69
2022/04/04 03:42:38;;;;;;;8.23;5.55;;;4.70;99.90;;;;;;5021349;28;20049;-69
2022/04/04 03:45:05;;;;;;;9.70;5.25;;;4.70;99.90;;;;;;5016777;28;20412;-68
2022/04/04 03:47:32;;;;;;;9.25;5.00;;;4.70;99.90;;;;;;5033569;28;20128;-69
2022/04/04 03:49:59;;;;;;;9.15;5.03;;;4.70;99.90;;;;;;5024786;28;20519;-69
2022/04/04 03:52:26;;;;;;;8.70;4.10;;;4.70;99.90;;;;;;5037614;28;20034;-69
2022/04/04 03:54:53;;;;;;;8.68;4.75;;;4.70;99.90;;;;;;5037401;28;20489;-69
2022/04/04 03:57:19;;;;;;;8.02;4.68;;;4.80;99.90;;;;;;5019859;28;20038;-69
2022/04/04 03:59:45;;;;;;;9.48;4.63;;;4.80;99.90;;;;;;5023077;28;20125;-68
2022/04/04 04:02:13;;;;;;;8.68;5.03;;;4.80;99.90;;;;;;5038280;28;20033;-68
2022/04/04 04:04:39;;;;;;;8.93;5.20;;;4.80;99.90;;;;;;5023860;28;20136;-69
2022/04/04 04:07:10;;;;;;;9.38;5.00;;;4.80;99.90;;;;;;5002613;28;20034;-69
2022/04/04 04:09:36;;;;;;;9.82;5.03;;;4.80;99.90;;;;;;5000569;28;20423;-69
2022/04/04 04:12:02;;;;;;;10.23;4.78;;;4.80;99.90;;;;;;5036464;28;20049;-69
2022/04/04 04:14:28;;;;;;;11.90;5.20;;;4.80;99.90;;;;;;5019462;28;20073;-69
2022/04/04 04:16:55;;;;;;;9.57;5.60;;;4.80;99.90;;;;;;5036238;28;20516;-69
2022/04/04 04:22:06;;;;;;;9.55;5.32;;;4.80;99.90;;;;;;5020704;28;20456;-69
2022/04/04 04:24:32;;;;;;;10.35;5.43;;;4.80;99.90;;;;;;5019417;28;20037;-69
2022/04/04 04:26:58;;;;;;;11.07;4.88;;;4.80;99.90;;;;;;5020119;28;20073;-69
2022/04/04 04:29:23;;;;;;;9.88;4.90;;;4.80;99.90;;;;;;4978390;28;20057;-69
2022/04/04 04:31:51;;;;;;;9.25;5.13;;;4.80;99.90;;;;;;5036586;28;20045;-70
2022/04/04 04:34:18;;;;;;;10.13;5.70;;;4.80;99.90;;;;;;5002260;28;20041;-69
2022/04/04 04:36:44;;;;;;;11.55;5.28;;;4.80;99.90;;;;;;5018665;28;20513;-71
2022/04/04 04:39:10;;;;;;;9.30;5.40;;;4.80;99.90;;;;;;5016588;28;20116;-71
2022/04/04 04:41:36;;;;;;;8.85;5.70;;;4.90;99.90;;;;;;5038127;28;20058;-69
2022/04/04 04:44:05;;;;;;;8.30;5.18;;;4.80;99.90;;;;;;5026370;28;20489;-69
2022/04/04 04:46:31;;;;;;;8.55;5.60;;;4.90;99.90;;;;;;5036556;28;20520;-70
2022/04/04 04:48:57;;;;;;;8.05;5.20;;;4.90;99.90;;;;;;5035445;28;20042;-69
2022/04/04 04:51:23;;;;;;;9.95;5.63;;;4.90;99.90;;;;;;5033520;28;20042;-70
2022/04/04 04:53:49;;;;;;;11.65;5.65;;;4.90;99.90;;;;;;5033833;28;20057;-70
2022/04/04 04:56:16;;;;;;;8.75;5.68;;;5.00;99.90;;;;;;5001490;28;20049;-69
2022/04/04 04:58:42;;;;;;;9.45;6.07;;;4.90;99.90;;;;;;5017628;28;20191;-70
2022/04/04 05:01:08;;;;;;;10.20;5.95;;;4.90;99.90;;;;;;5017706;28;20109;-69
2022/04/04 05:03:34;;;;;;;9.02;6.07;;;4.90;99.90;;;;;;5003204;28;20041;-69
2022/04/04 05:06:00;;;;;;;10.93;5.93;;;5.00;99.90;;;;;;5015235;28;20041;-69
2022/04/04 05:08:26;;;;;;;10.52;6.05;;;5.00;99.90;;;;;;5035107;28;20393;-70
2022/04/04 05:10:53;;;;;;;13.93;6.22;;;5.00;99.90;;;;;;5019968;28;20041;-69
2022/04/04 05:13:19;;;;;;;9.93;5.70;;;5.00;99.90;;;;;;5015616;28;20957;-69
2022/04/04 05:15:45;;;;;;;9.95;6.18;;;5.00;99.90;;;;;;5017646;28;20030;-69
2022/04/04 05:18:11;;;;;;;9.98;6.03;;;5.00;99.90;;;;;;5022493;28;20041;-70
2022/04/04 05:20:40;;;;;;;11.90;6.72;;;4.90;99.90;;;;;;5026943;28;20052;-72
2022/04/04 05:23:06;;;;;;;11.70;6.82;;;4.90;99.90;;;;;;5013837;28;20107;-70
2022/04/04 05:25:32;;;;;;;9.88;6.57;;;4.90;99.90;;;;;;5037514;28;20565;-69
2022/04/04 05:27:59;;;;;;;12.50;6.70;;;4.90;99.90;;;;;;5023516;28;20133;-70
2022/04/04 05:30:25;;;;;;;13.85;6.65;;;4.90;99.90;;;;;;5030483;28;20041;-69
2022/04/04 05:32:51;;;;;;;10.60;6.68;;;4.90;99.90;;;;;;5031984;28;20625;-69
2022/04/04 05:35:19;;;;;;;11.50;6.57;;;4.90;99.90;;;;;;5021097;28;20109;-70
2022/04/04 05:37:46;;;;;;;10.50;7.07;;;4.90;99.90;;;;;;5002777;28;20034;-68
2022/04/04 05:40:12;;;;;;;10.77;6.90;;;4.90;99.90;;;;;;4998310;28;20493;-70
2022/04/04 05:42:39;;;;;;;14.57;7.85;;;4.80;99.90;;;;;;5017685;28;20076;-72
2022/04/04 05:45:09;;;;;;;12.70;7.30;;;4.90;99.90;;;;;;5032393;28;20048;-69
2022/04/04 05:47:35;;;;;;;13.45;7.05;;;4.90;99.90;;;;;;5001807;28;20119;-69
2022/04/04 05:50:01;;;;;;;11.73;7.53;;;4.90;99.90;;;;;;5023132;28;20033;-70
2022/04/04 05:52:27;;;;;;;12.25;7.07;;;5.00;99.90;;;;;;4995823;28;20038;-70
2022/04/04 05:54:54;;;;;;;16.50;9.80;;;5.00;99.90;;;;;;5033853;28;20142;-69
2022/04/04 05:57:24;;;;;;;16.20;9.45;;;5.00;99.90;;;;;;5034071;28;20089;-70
2022/04/04 05:59:52;;;;;;;13.15;7.60;;;5.10;99.90;;;;;;5017523;28;20129;-70
2022/04/04 06:02:19;;;;;;;14.30;7.75;;;5.00;99.90;;;;;;5034847;28;20380;-70
2022/04/04 06:04:47;;;;;;;10.48;7.43;;;5.00;99.90;;;;;;5031671;28;20041;-70
2022/04/04 06:07:23;;;;;;;15.13;8.88;;;5.00;99.90;;;;;;5031167;28;20412;-69
2022/04/04 06:09:48;;;;;;;14.15;7.95;;;5.00;99.90;;;;;;5020982;28;20049;-68
2022/04/04 06:12:16;;;;;;;12.73;8.65;;;5.00;99.90;;;;;;5019383;28;20064;-70
2022/04/04 06:14:42;;;;;;;11.45;7.85;;;5.00;99.90;;;;;;5018858;28;20497;-70
2022/04/04 06:17:08;;;;;;;13.90;8.10;;;5.10;99.90;;;;;;5029441;28;20045;-69
2022/04/04 06:19:35;;;;;;;11.25;7.35;;;5.10;99.90;;;;;;5018344;28;20698;-70
2022/04/04 06:22:02;;;;;;;15.88;7.80;;;5.20;99.90;;;;;;5016941;28;20053;-70
2022/04/04 06:24:31;;;;;;;13.57;7.45;;;5.30;99.90;;;;;;5034348;28;20042;-69
2022/04/04 06:27:01;;;;;;;10.02;6.80;;;5.30;99.90;;;;;;5040353;28;20489;-69
2022/04/04 06:29:28;;;;;;;10.52;6.97;;;5.40;99.90;;;;;;5031532;28;20062;-70
2022/04/04 06:31:55;;;;;;;13.88;7.28;;;5.50;99.90;;;;;;5019311;28;20124;-70
2022/04/04 06:34:21;;;;;;;14.52;6.72;;;5.60;99.90;;;;;;5019402;28;20052;-70
2022/04/04 06:36:47;;;;;;;12.80;7.10;;;5.70;99.90;;;;;;5017406;28;20037;-69
2022/04/04 06:39:14;;;;;;;10.60;6.47;;;5.70;99.90;;;;;;5018465;28;20081;-71
2022/04/04 06:41:40;;;;;;;14.77;6.78;;;5.80;99.90;;;;;;5033042;28;20038;-70
2022/04/04 06:44:07;;;;;;;13.82;6.93;;;5.90;99.90;;;;;;5018321;28;20084;-70
2022/04/04 06:46:36;;;;;;;11.13;6.97;;;6.00;99.90;;;;;;5023901;28;20105;-70
2022/04/04 06:49:07;;;;;;;9.98;6.18;;;6.10;99.90;;;;;;5016402;28;20042;-70
2022/04/04 06:51:33;;;;;;;11.90;6.32;;;6.30;99.90;;;;;;5019032;28;20038;-71
2022/04/04 06:54:05;;;;;;;11.48;6.82;;;6.50;99.90;;;;;;5020663;28;20516;-70
2022/04/04 06:56:34;;;;;;;11.50;6.10;;;6.60;99.90;;;;;;5032114;28;20042;-70
2022/04/04 06:59:01;;;;;;;13.32;5.88;;;6.70;99.90;;;;;;5018449;28;20404;-70
2022/04/04 07:01:27;;;;;;;8.63;5.65;;;6.90;99.90;;;;;;5014481;28;20122;-70
2022/04/04 07:03:54;;;;;;;12.43;5.32;;;7.00;99.90;;;;;;5033327;28;20045;-70
2022/04/04 07:06:21;;;;;;;12.48;5.82;;;7.10;99.90;;;;;;4997071;28;20476;-70
2022/04/04 07:08:46;;;;;;;8.68;5.45;;;7.10;99.90;;;;;;5001509;28;20117;-70
2022/04/04 07:11:13;;;;;;;7.78;5.53;;;7.30;99.90;;;;;;5019203;28;20058;-70
2022/04/04 07:13:40;;;;;;;8.65;5.18;;;7.30;99.90;;;;;;5021614;28;20048;-69
2022/04/04 07:16:06;;;;;;;11.88;5.80;;;7.50;99.90;;;;;;5033275;28;20036;-70
2022/04/04 07:18:34;;;;;;;10.48;5.32;;;7.50;99.90;;;;;;5026510;28;20045;-69
2022/04/04 07:21:00;;;;;;;11.50;5.68;;;7.50;99.90;;;;;;5036500;28;20034;-70
2022/04/04 07:23:26;;;;;;;8.18;5.70;;;7.50;99.90;;;;;;5022684;28;20124;-71
2022/04/04 07:25:51;;;;;;;11.65;6.32;;;7.50;99.90;;;;;;5001717;28;20192;-70
2022/04/04 07:28:20;;;;;;;9.60;5.20;;;7.60;99.90;;;;;;5034071;28;20045;-70
2022/04/04 07:30:46;;;;;;;9.48;5.80;;;7.80;99.90;;;;;;5034753;28;20125;-70
2022/04/04 07:33:18;;;;;;;9.20;5.45;;;7.80;99.90;;;;;;5018779;28;20156;-69
2022/04/04 07:35:45;;;;;;;10.82;5.30;;;7.80;99.90;;;;;;5032312;28;20042;-70
2022/04/04 07:38:12;;;;;;;8.90;5.07;;;7.90;99.90;;;;;;5035216;28;20034;-69
2022/04/04 07:40:39;;;;;;;9.20;4.72;;;8.00;99.90;;;;;;5022126;28;20048;-70
2022/04/04 07:43:05;;;;;;;8.00;4.72;;;8.10;99.90;;;;;;5034332;28;20435;-70
2022/04/04 07:45:31;;;;;;;9.27;5.20;;;8.20;99.90;;;;;;5037393;28;20038;-71
2022/04/04 07:47:59;;;;;;;8.65;4.50;;;8.30;99.90;;;;;;5003602;28;20844;-71
2022/04/04 07:50:27;;;;;;;8.75;5.13;;;8.30;99.90;;;;;;5035475;28;20111;-70
2022/04/04 07:52:53;;;;;;;8.80;4.68;;;8.30;99.90;;;;;;5020428;28;20566;-71
2022/04/04 07:55:20;;;;;;;6.90;4.97;;;8.40;99.90;;;;;;5001218;28;20435;-70
2022/04/04 07:57:46;;;;;;;8.00;5.00;;;8.40;99.90;;;;;;5018103;28;20535;-70
2022/04/04 08:00:17;;;;;;;7.60;4.20;;;8.50;99.90;;;;;;4986667;28;20457;-69
2022/04/04 08:02:43;;;;;;;9.65;4.80;;;8.40;99.90;;;;;;4990031;28;20045;-71
2022/04/04 08:05:10;;;;;;;8.88;4.95;;;8.40;99.90;;;;;;5022009;28;20075;-70
2022/04/04 08:07:38;;;;;;;11.00;5.10;;;8.40;99.90;;;;;;5009909;28;20623;-70
2022/04/04 08:10:04;;;;;;;13.23;5.10;;;8.40;99.90;;;;;;5017138;28;20022;-71
2022/04/04 08:12:30;;;;;;;9.48;4.65;;;8.40;99.90;;;;;;5010285;28;20075;-70
2022/04/04 08:14:57;;;;;;;7.18;4.78;;;8.40;99.90;;;;;;5006449;28;20506;-71
2022/04/04 08:17:23;;;;;;;10.05;5.43;;;8.60;99.90;;;;;;5009040;28;20052;-72
2022/04/04 08:19:50;;;;;;;9.10;5.07;;;8.70;99.90;;;;;;5025644;28;20037;-72
2022/04/04 08:22:18;;;;;;;9.45;5.05;;;8.80;99.90;;;;;;5025226;28;20108;-71
2022/04/04 08:24:44;;;;;;;11.68;5.57;;;9.00;99.90;;;;;;5007330;28;20038;-70
2022/04/04 08:27:10;;;;;;;9.18;5.10;;;9.10;99.90;;;;;;5010952;28;20042;-70
2022/04/04 08:29:37;;;;;;;9.43;4.70;;;9.20;99.90;;;;;;5005697;28;20124;-70
2022/04/04 08:32:05;;;;;;;7.20;4.90;;;9.20;99.90;;;;;;5015136;28;20117;-71
2022/04/04 08:34:31;;;;;;;9.40;5.35;;;9.30;99.90;;;;;;5028750;28;20097;-71
2022/04/04 08:37:00;;;;;;;9.15;4.78;;;9.60;99.90;;;;;;4995300;28;20492;-71
2022/04/04 08:39:26;;;;;;;7.43;4.88;;;9.60;99.90;;;;;;5008738;28;20461;-71
2022/04/04 08:41:56;;;;;;;12.07;5.40;;;9.80;99.90;;;;;;5007828;28;20053;-70
2022/04/04 08:44:23;;;;;;;11.07;5.40;;;10.00;99.90;;;;;;5009503;28;20604;-71
2022/04/04 08:46:50;;;;;;;6.95;4.70;;;10.20;99.90;;;;;;5023326;28;20451;-70
2022/04/04 08:49:17;;;;;;;7.95;4.40;;;10.30;99.90;;;;;;5021247;28;20052;-70
2022/04/04 08:51:44;;;;;;;9.93;5.05;;;10.60;99.90;;;;;;5024617;28;20065;-70
2022/04/04 08:54:09;;;;;;;9.15;4.15;;;11.30;99.50;;;;;;5002437;28;20046;-70
2022/04/04 08:56:36;;;;;;;9.40;4.18;;;11.40;99.30;;;;;;4985399;28;20048;-71
2022/04/04 08:59:03;;;;;;;9.27;5.00;;;11.30;99.40;;;;;;5017670;28;20124;-71
2022/04/04 09:01:30;;;;;;;8.73;4.88;;;11.70;99.20;;;;;;4965432;28;20104;-72
2022/04/04 09:04:00;;;;;;;8.77;4.60;;;12.50;98.70;;;;;;5003660;28;20046;-71
2022/04/04 09:07:10;;;;;;;9.10;5.18;;;13.30;97.50;;;;;;4984960;28;20398;-73
2022/04/04 09:09:41;;;;;;;10.77;5.53;;;14.60;96.60;;;;;;5030309;28;20463;-71
2022/04/04 09:12:21;;;;;;;6.68;4.50;;;16.30;94.20;;;;;;4964870;28;20034;-71
2022/04/04 09:14:58;;;;;;;8.65;4.10;;;16.30;93.00;;;;;;5003253;28;20066;-71
2022/04/04 09:17:30;;;;;;;6.25;3.60;;;16.10;93.00;;;;;;5015076;28;20103;-70
2022/04/04 09:19:57;;;;;;;7.75;3.83;;;15.50;93.20;;;;;;4996509;28;20088;-71
2022/04/04 09:22:24;;;;;;;7.60;3.58;;;15.20;93.90;;;;;;5001943;28;20053;-70
2022/04/04 09:24:58;;;;;;;7.00;3.40;;;15.50;93.40;;;;;;5007740;28;20492;-71
2022/04/04 09:27:33;;;;;;;7.07;3.30;;;16.30;92.40;;;;;;5002179;28;20048;-70
2022/04/04 09:30:07;;;;;;;7.72;3.20;;;16.90;91.60;;;;;;5021231;28;20072;-71
2022/04/04 09:32:45;;;;;;;6.85;3.03;;;17.70;91.00;;;;;;4989297;28;20069;-71
2022/04/04 09:35:16;;;;;;;7.05;2.63;;;18.50;90.10;;;;;;5006050;28;20374;-70
2022/04/04 09:37:44;;;;;;;7.97;2.80;;;18.20;88.80;;;;;;5004015;28;20061;-71
2022/04/04 09:40:15;;;;;;;7.20;3.00;;;16.70;89.30;;;;;;5008718;28;20645;-70
2022/04/04 09:43:02;;;;;;;7.75;2.97;;;17.00;90.00;;;;;;5008029;28;20407;-70
2022/04/04 09:45:29;;;;;;;6.57;2.55;;;15.60;90.30;;;;;;4993486;28;20069;-70
2022/04/04 09:47:56;;;;;;;7.40;3.05;;;15.10;90.80;;;;;;5020736;28;20038;-71
2022/04/04 09:50:45;;;;;;;6.82;2.95;;;15.60;90.90;;;;;;4999197;28;20159;-70
2022/04/04 09:53:15;;;;;;;6.38;2.67;;;15.40;90.70;;;;;;5017572;28;20544;-71
2022/04/04 09:55:46;;;;;;;8.02;3.10;;;16.00;90.20;;;;;;4995358;28;20034;-70
2022/04/04 09:58:15;;;;;;;6.38;2.90;;;16.90;88.30;;;;;;5011972;28;20037;-70
2022/04/04 10:00:44;;;;;;;7.22;3.03;;;16.20;88.80;;;;;;5019764;28;20393;-71
2022/04/04 10:03:12;;;;;;;5.85;2.90;;;16.70;89.60;;;;;;4999975;28;20096;-70
2022/04/04 10:06:04;;;;;;;5.53;3.25;;;17.80;87.50;;;;;;5003259;28;20054;-71
2022/04/04 10:08:31;;;;;;;5.90;2.80;;;17.90;86.10;;;;;;5018191;28;20046;-70
2022/04/04 10:10:58;;;;;;;9.13;3.17;;;16.80;86.60;;;;;;5003050;28;20041;-70
2022/04/04 10:13:25;;;;;;;7.60;2.85;;;16.60;86.80;;;;;;4988271;28;20084;-70
2022/04/04 10:15:52;;;;;;;6.30;2.90;;;16.30;87.50;;;;;;5023913;28;20041;-69
2022/04/04 10:18:19;;;;;;;5.82;2.60;;;16.10;87.60;;;;;;5010090;28;20034;-71
2022/04/04 10:20:54;;;;;;;5.38;2.33;;;16.00;88.10;;;;;;5006673;28;20034;-71
2022/04/04 10:23:22;;;;;;;4.40;2.03;;;15.90;87.90;;;;;;5016265;28;20046;-71
2022/04/04 10:25:51;;;;;;;5.97;2.15;;;15.70;87.90;;;;;;4999117;28;20533;-71
2022/04/04 10:28:29;;;;;;;4.45;2.65;;;15.90;87.90;;;;;;5012282;28;20053;-72
2022/04/04 10:31:17;;;;;;;7.22;2.88;;;16.50;86.80;;;;;;5002026;28;20038;-70
2022/04/04 10:33:47;;;;;;;4.20;2.30;;;16.80;85.10;;;;;;5020681;28;20092;-72
2022/04/04 10:36:20;;;;;;;7.32;2.22;;;16.70;84.30;;;;;;5020642;28;20041;-70
2022/04/04 10:38:47;;;;;;;5.30;2.63;;;16.50;84.80;;;;;;4987136;28;20037;-72
2022/04/04 10:41:16;;;;;;;6.15;2.40;;;16.20;84.50;;;;;;4989607;28;20112;-70
2022/04/04 10:43:47;;;;;;;5.68;2.33;;;16.20;85.60;;;;;;4990510;28;20073;-70
2022/04/04 10:46:19;;;;;;;5.93;2.97;;;16.80;84.80;;;;;;5005069;28;20389;-71
2022/04/04 10:48:59;;;;;;;5.28;2.72;;;17.00;83.60;;;;;;5007084;28;20059;-71
2022/04/04 10:51:35;;;;;;;4.32;2.53;;;17.00;83.70;;;;;;5006600;28;20049;-71
2022/04/04 10:54:04;;;;;;;6.57;2.65;;;17.40;82.80;;;;;;5002487;28;20101;-70
2022/04/04 10:56:42;;;;;;;5.47;2.63;;;17.50;82.80;;;;;;4993512;28;20045;-70
2022/04/04 10:59:21;;;;;;;7.93;2.80;;;17.40;82.90;;;;;;5009242;28;20050;-71
2022/04/04 11:01:53;;;;;;;5.57;3.17;;;17.30;83.60;;;;;;5019882;28;20060;-71
2022/04/04 11:04:27;;;;;;;5.55;3.30;;;16.60;84.60;;;;;;5034396;28;20056;-71
2022/04/04 11:09:57;;;;;;;6.13;3.60;;;16.40;86.60;;;;;;5009881;28;20040;-70
2022/04/04 11:12:25;;;;;;;7.03;3.90;;;16.30;87.50;;;;;;5018190;28;20086;-70
2022/04/04 11:15:02;;;;;;;8.95;4.03;;;16.70;86.50;;;;;;5011617;28;20638;-71
2022/04/04 11:17:36;;;;;;;10.18;4.55;;;16.20;87.20;;;;;;5023332;28;20057;-71
2022/04/04 11:20:32;;;;;;;5.55;3.65;;;15.20;88.70;;;;;;5011503;28;20048;-71
2022/04/04 11:23:01;;;;;;;7.10;3.92;;;14.70;90.20;;;;;;4998228;28;20045;-70
2022/04/04 11:25:33;;;;;;;11.38;4.20;;;15.40;90.20;;;;;;5019649;28;20056;-71
2022/04/04 11:28:10;;;;;;;6.70;4.25;;;15.30;90.10;;;;;;5029215;28;20038;-70
2022/04/04 11:30:36;;;;;;;5.35;3.80;;;15.10;89.90;;;;;;5004661;28;20041;-70
2022/04/04 11:33:07;;;;;;;7.13;3.85;;;15.20;90.20;;;;;;5010202;28;20046;-70
2022/04/04 11:35:34;;;;;;;7.70;3.92;;;16.20;89.10;;;;;;5022795;28;20044;-71
2022/04/04 11:38:05;;;;;;;6.07;3.65;;;16.80;88.10;;;;;;5023763;28;20041;-69
2022/04/04 11:40:34;;;;;;;6.35;3.80;;;16.50;87.50;;;;;;5024317;28;20033;-71
2022/04/04 11:43:07;;;;;;;6.38;4.15;;;16.00;87.10;;;;;;5026551;28;20424;-71
2022/04/04 11:45:39;;;;;;;6.95;4.20;;;16.00;87.80;;;;;;5026622;28;20526;-70
2022/04/04 11:48:24;;;;;;;8.77;4.70;;;16.10;86.90;;;;;;5023343;28;20042;-70
2022/04/04 11:50:56;;;;;;;10.00;5.25;;;15.70;87.60;;;;;;5026820;28;20084;-70
2022/04/04 11:53:27;;;;;;;8.27;4.82;;;16.40;87.50;;;;;;4992904;28;20131;-73
2022/04/04 11:56:10;;;;;;;10.43;4.60;;;16.60;86.80;;;;;;5007846;28;20034;-71
2022/04/04 11:58:47;;;;;;;8.68;4.40;;;16.10;87.50;;;;;;5002967;28;20128;-70
2022/04/04 12:01:13;;;;;;;7.25;3.92;;;16.10;87.20;;;;;;5006966;28;20125;-72
2022/04/04 12:03:43;;;;;;;6.00;3.72;;;16.50;86.60;;;;;;5007260;28;20084;-72
2022/04/04 12:06:09;;;;;;;10.68;4.20;;;16.40;86.00;;;;;;5000439;28;20511;-71
2022/04/04 12:08:37;;;;;;;6.88;3.85;;;16.20;86.20;;;;;;5002485;28;20057;-72
2022/04/04 12:11:05;;;;;;;7.63;3.53;;;16.10;85.00;;;;;;5015377;28;20493;-75
2022/04/04 12:13:31;;;;;;;6.65;3.50;;;16.20;84.90;;;;;;5006122;28;20056;-72
2022/04/04 12:15:58;;;;;;;6.15;3.17;;;16.20;83.50;;;;;;5025948;28;20117;-74
2022/04/04 12:18:28;;;;;;;5.15;3.20;;;16.40;82.30;;;;;;5001900;28;20053;-73
2022/04/04 12:20:59;;;;;;;4.65;3.20;;;17.10;81.70;;;;;;5024795;28;20038;-72
2022/04/04 12:26:14;;;;;;;8.05;3.97;;;17.90;79.50;;;;;;5008716;28;20734;-69
2022/04/04 12:29:00;;;;;;;5.65;3.33;;;18.10;79.50;;;;;;5003610;28;20046;-69
2022/04/04 12:31:29;;;;;;;5.38;3.53;;;18.40;78.10;;;;;;4986288;28;20389;-69
2022/04/04 12:34:06;;;;;;;6.30;3.90;;;18.60;77.80;;;;;;5006571;28;20037;-70
2022/04/04 12:36:41;;;;;;;6.70;3.88;;;18.50;77.10;;;;;;5007038;28;20038;-72
2022/04/04 12:39:13;;;;;;;7.32;3.60;;;18.70;77.70;;;;;;5004534;28;20046;-70
2022/04/04 12:41:50;;;;;;;6.72;3.75;;;19.20;77.80;;;;;;5008832;28;20042;-73
2022/04/04 12:44:22;;;;;;;6.65;3.80;;;19.50;75.80;;;;;;5023368;28;20064;-72
2022/04/04 12:46:50;;;;;;;4.40;3.30;;;19.30;75.30;;;;;;5027013;28;20112;-70
2022/04/04 12:49:23;;;;;;;7.03;3.83;;;19.30;74.60;;;;;;5017685;28;20041;-72
2022/04/04 12:51:59;;;;;;;4.80;3.70;;;19.20;73.80;;;;;;5008085;28;20128;-71
2022/04/04 12:54:37;;;;;;;6.57;3.95;;;19.70;74.80;;;;;;5020411;28;20064;-70
2022/04/04 12:57:06;;;;;;;5.85;3.45;;;19.80;73.00;;;;;;5023877;28;20114;-72
2022/04/04 12:59:47;;;;;;;6.93;3.67;;;19.70;71.50;;;;;;5006496;28;20100;-72
2022/04/04 13:02:15;;;;;;;5.05;3.35;;;19.40;71.20;;;;;;5003398;28;20052;-71
2022/04/04 13:04:42;;;;;;;5.40;3.47;;;19.10;71.50;;;;;;5010832;28;20424;-70
2022/04/04 13:07:19;;;;;;;6.90;3.67;;;19.00;71.10;;;;;;5002591;28;20378;-72
2022/04/04 13:09:53;;;;;;;5.75;3.40;;;19.10;71.20;;;;;;5017440;28;20038;-72